Time;durP1;ratioP1;P1;durP2;ratioP2;P2;SDS_P1;SDS_P2;PMS_P1;PMS_P2;Temp;Humidity;BMP_temperature;BMP_pressure;BME280_temperature;BME280_humidity;BME280_pressure;Samples;Min_cycle;Max_cycle;Signal;HPM_P1;HPM_P2
2021/07/04 00:00:23;;;;;;;9.38;6.68;;;;;;;;;;5080195;28;20384;-55
2021/07/04 00:02:52;;;;;;;6.95;5.72;;;;;;;;;;5087777;28;20056;-53
2021/07/04 00:05:18;;;;;;;6.97;6.38;;;;;;;;;;5074152;28;20507;-54
2021/07/04 00:07:44;;;;;;;7.70;6.82;;;;;;;;;;5075716;28;20048;-56
2021/07/04 00:10:10;;;;;;;6.78;6.20;;;;;;;;;;5089740;28;20024;-53
2021/07/04 00:12:36;;;;;;;7.13;6.53;;;;;;;;;;5077093;28;20024;-52
2021/07/04 00:15:03;;;;;;;7.97;7.28;;;;;;;;;;5092181;28;20548;-54
2021/07/04 00:17:28;;;;;;;7.43;6.72;;;;;;;;;;5088828;28;20052;-51
2021/07/04 00:19:54;;;;;;;7.35;6.65;;;;;;;;;;5085092;28;20446;-54
2021/07/04 00:22:19;;;;;;;7.32;6.65;;;;;;;;;;5091766;28;20461;-51
2021/07/04 00:24:44;;;;;;;7.97;6.95;;;;;;;;;;5088134;28;20108;-52
2021/07/04 00:27:09;;;;;;;7.25;6.65;;;;;;;;;;5092341;28;20034;-53
2021/07/04 00:29:35;;;;;;;9.30;7.07;;;;;;;;;;5093655;28;20127;-50
2021/07/04 00:32:00;;;;;;;6.93;6.22;;;;;;;;;;5085755;28;20027;-52
2021/07/04 00:34:25;;;;;;;7.90;6.30;;;;;;;;;;5086599;28;20399;-51
2021/07/04 00:36:50;;;;;;;6.82;6.15;;;;;;;;;;5076481;28;20035;-52
2021/07/04 00:39:15;;;;;;;7.43;6.82;;;;;;;;;;5074423;28;20025;-52
2021/07/04 00:41:41;;;;;;;6.65;6.05;;;;;;;;;;5079156;28;20023;-54
2021/07/04 00:44:06;;;;;;;6.78;6.28;;;;;;;;;;5093325;28;20028;-54
2021/07/04 00:46:31;;;;;;;7.88;7.07;;;;;;;;;;5094376;28;20475;-51
2021/07/04 00:48:57;;;;;;;9.63;7.20;;;;;;;;;;5087054;28;20017;-53
2021/07/04 00:51:23;;;;;;;6.75;6.05;;;;;;;;;;5071809;28;20020;-54
2021/07/04 00:53:48;;;;;;;7.10;6.40;;;;;;;;;;5080357;28;20486;-52
2021/07/04 00:56:13;;;;;;;7.15;6.40;;;;;;;;;;5085266;28;20039;-55
2021/07/04 00:58:39;;;;;;;7.97;6.63;;;;;;;;;;5090320;28;20074;-56
2021/07/04 01:01:05;;;;;;;6.43;5.82;;;;;;;;;;5090381;28;20055;-52
2021/07/04 01:03:30;;;;;;;6.57;5.88;;;;;;;;;;5083648;28;20055;-54
2021/07/04 01:05:55;;;;;;;7.18;6.50;;;;;;;;;;5089697;28;20024;-53
2021/07/04 01:08:21;;;;;;;6.85;6.28;;;;;;;;;;5093383;28;20027;-55
2021/07/04 01:10:46;;;;;;;7.80;6.00;;;;;;;;;;5091599;28;20027;-52
2021/07/04 01:13:12;;;;;;;6.72;6.13;;;;;;;;;;5093819;28;20024;-52
2021/07/04 01:15:38;;;;;;;6.55;5.95;;;;;;;;;;5088214;28;20076;-54
2021/07/04 01:18:05;;;;;;;6.57;5.97;;;;;;;;;;5082424;28;20435;-53
2021/07/04 01:20:31;;;;;;;7.05;6.35;;;;;;;;;;5071616;28;20104;-50
2021/07/04 01:23:03;;;;;;;7.13;6.53;;;;;;;;;;5076494;28;20104;-53
2021/07/04 01:25:30;;;;;;;7.20;6.50;;;;;;;;;;5089208;28;20407;-56
2021/07/04 01:27:56;;;;;;;7.20;6.50;;;;;;;;;;5080717;28;20088;-49
2021/07/04 01:30:21;;;;;;;7.15;6.45;;;;;;;;;;5076874;28;20069;-54
2021/07/04 01:32:47;;;;;;;7.85;7.05;;;;;;;;;;5092042;28;20510;-54
2021/07/04 01:35:12;;;;;;;6.72;6.13;;;;;;;;;;5091034;28;20498;-53
2021/07/04 01:37:37;;;;;;;6.97;6.32;;;;;;;;;;5088170;28;20027;-53
2021/07/04 01:40:03;;;;;;;6.75;6.15;;;;;;;;;;5075597;28;20024;-54
2021/07/04 01:42:29;;;;;;;6.93;6.32;;;;;;;;;;5071643;28;20082;-55
2021/07/04 01:44:54;;;;;;;10.60;8.90;;;;;;;;;;5074320;28;20031;-55
2021/07/04 01:47:19;;;;;;;11.77;10.63;;;;;;;;;;5075865;28;20016;-53
2021/07/04 01:49:44;;;;;;;10.93;9.65;;;;;;;;;;5092315;28;20028;-55
2021/07/04 01:52:09;;;;;;;10.65;9.27;;;;;;;;;;5080621;28;20016;-53
2021/07/04 01:54:36;;;;;;;11.85;10.73;;;;;;;;;;5074024;28;20024;-51
2021/07/04 01:57:11;;;;;;;12.57;10.57;;;;;;;;;;5073667;28;20025;-54
2021/07/04 01:59:38;;;;;;;11.60;9.23;;;;;;;;;;5078887;28;20050;-54
2021/07/04 02:02:03;;;;;;;9.98;8.82;;;;;;;;;;5072616;28;20024;-53
2021/07/04 02:04:28;;;;;;;9.82;8.82;;;;;;;;;;5077236;28;20024;-52
2021/07/04 02:06:53;;;;;;;10.18;9.23;;;;;;;;;;5072960;28;20529;-54
2021/07/04 02:09:18;;;;;;;9.65;8.75;;;;;;;;;;5090261;28;20042;-52
2021/07/04 02:11:44;;;;;;;9.38;8.05;;;;;;;;;;5074561;28;20009;-54
2021/07/04 02:14:10;;;;;;;9.00;8.20;;;;;;;;;;5074555;28;20082;-54
2021/07/04 02:16:36;;;;;;;8.90;7.20;;;;;;;;;;5079446;28;20024;-54
2021/07/04 02:19:02;;;;;;;8.38;7.57;;;;;;;;;;5092014;28;20022;-53
2021/07/04 02:21:27;;;;;;;8.35;7.55;;;;;;;;;;5079774;28;20034;-55
2021/07/04 02:23:52;;;;;;;7.97;7.18;;;;;;;;;;5077820;28;20080;-54
2021/07/04 02:26:17;;;;;;;7.53;6.72;;;;;;;;;;5091677;28;20383;-52
2021/07/04 02:28:43;;;;;;;7.72;7.03;;;;;;;;;;5089801;28;20100;-48
2021/07/04 02:31:08;;;;;;;8.25;7.32;;;;;;;;;;5078389;28;20043;-50
2021/07/04 02:33:33;;;;;;;7.68;6.97;;;;;;;;;;5085233;28;20020;-52
2021/07/04 02:35:58;;;;;;;7.60;6.72;;;;;;;;;;5092666;28;20020;-51
2021/07/04 02:38:25;;;;;;;7.88;7.10;;;;;;;;;;5090512;28;20020;-52
2021/07/04 02:40:51;;;;;;;8.15;6.88;;;;;;;;;;5081579;28;20016;-53
2021/07/04 02:43:17;;;;;;;8.18;7.40;;;;;;;;;;5084664;28;20021;-53
2021/07/04 02:45:43;;;;;;;6.90;6.20;;;;;;;;;;5072967;28;20032;-52
2021/07/04 02:48:09;;;;;;;7.18;6.43;;;;;;;;;;5082796;28;20481;-52
2021/07/04 02:50:35;;;;;;;6.60;5.90;;;;;;;;;;5074399;28;20320;-54
2021/07/04 02:53:00;;;;;;;6.18;5.57;;;;;;;;;;5091084;28;20028;-53
2021/07/04 02:55:26;;;;;;;6.40;5.82;;;;;;;;;;5075941;28;20074;-53
2021/07/04 02:57:51;;;;;;;7.00;6.40;;;;;;;;;;5089522;28;20033;-54
2021/07/04 03:00:18;;;;;;;7.15;6.45;;;;;;;;;;5078159;28;20065;-52
2021/07/04 03:02:43;;;;;;;6.60;6.00;;;;;;;;;;5069665;28;20044;-54
2021/07/04 03:05:09;;;;;;;6.68;5.97;;;;;;;;;;5086461;28;20127;-52
2021/07/04 03:07:36;;;;;;;6.85;6.28;;;;;;;;;;5091204;28;20028;-55
2021/07/04 03:10:01;;;;;;;6.35;5.75;;;;;;;;;;5091133;28;20103;-55
2021/07/04 03:12:27;;;;;;;7.13;6.43;;;;;;;;;;5088432;28;20095;-53
2021/07/04 03:14:52;;;;;;;6.18;5.57;;;;;;;;;;5083540;28;20060;-52
2021/07/04 03:17:18;;;;;;;6.07;5.57;;;;;;;;;;5072032;28;20024;-52
2021/07/04 03:19:43;;;;;;;6.90;6.25;;;;;;;;;;5091154;28;20075;-54
2021/07/04 03:22:08;;;;;;;6.22;5.63;;;;;;;;;;5074021;28;20039;-51
2021/07/04 03:24:33;;;;;;;6.43;5.82;;;;;;;;;;5080207;28;20019;-50
2021/07/04 03:26:59;;;;;;;6.22;5.63;;;;;;;;;;5071949;28;20032;-53
2021/07/04 03:29:24;;;;;;;6.38;5.63;;;;;;;;;;5078030;28;20486;-54
2021/07/04 03:31:49;;;;;;;6.63;5.95;;;;;;;;;;5083521;28;20050;-50
2021/07/04 03:34:14;;;;;;;6.40;5.78;;;;;;;;;;5092180;28;20023;-50
2021/07/04 03:36:40;;;;;;;6.15;5.55;;;;;;;;;;5088829;28;20028;-48
2021/07/04 03:39:05;;;;;;;5.97;5.40;;;;;;;;;;5085497;28;20031;-50
2021/07/04 03:41:30;;;;;;;6.07;5.53;;;;;;;;;;5083788;28;20095;-52
2021/07/04 03:43:59;;;;;;;5.55;5.03;;;;;;;;;;5080448;28;20090;-51
2021/07/04 03:46:24;;;;;;;5.40;5.00;;;;;;;;;;5075730;28;20078;-51
2021/07/04 03:48:49;;;;;;;5.38;4.88;;;;;;;;;;5077080;28;20410;-53
2021/07/04 03:51:14;;;;;;;5.38;4.88;;;;;;;;;;5080478;28;20020;-52
2021/07/04 03:53:39;;;;;;;5.20;4.70;;;;;;;;;;5095439;28;20024;-52
2021/07/04 03:56:05;;;;;;;5.38;4.97;;;;;;;;;;5095017;28;20058;-51
2021/07/04 03:58:30;;;;;;;6.85;5.03;;;;;;;;;;5095180;28;20378;-53
2021/07/04 04:00:55;;;;;;;5.63;5.13;;;;;;;;;;5077963;28;20081;-51
2021/07/04 04:03:20;;;;;;;5.47;4.97;;;;;;;;;;5084430;28;20063;-53
2021/07/04 04:05:46;;;;;;;6.28;5.20;;;;;;;;;;5095231;28;20028;-50
2021/07/04 04:08:11;;;;;;;6.22;5.72;;;;;;;;;;5077264;28;20027;-51
2021/07/04 04:10:36;;;;;;;6.07;5.47;;;;;;;;;;5075011;28;20350;-52
2021/07/04 04:13:01;;;;;;;5.70;4.47;;;;;;;;;;5094881;28;20363;-53
2021/07/04 04:15:27;;;;;;;5.85;4.97;;;;;;;;;;5095313;28;20016;-51
2021/07/04 04:17:54;;;;;;;4.80;4.43;;;;;;;;;;5095473;28;20085;-54
2021/07/04 04:20:19;;;;;;;4.78;4.35;;;;;;;;;;5081231;28;20021;-52
2021/07/04 04:22:44;;;;;;;5.22;4.72;;;;;;;;;;5081103;28;20533;-54
2021/07/04 04:25:10;;;;;;;4.43;3.97;;;;;;;;;;5093944;28;20024;-54
2021/07/04 04:27:35;;;;;;;4.18;3.85;;;;;;;;;;5087577;28;20035;-54
2021/07/04 04:30:00;;;;;;;4.45;4.00;;;;;;;;;;5091776;28;20016;-53
2021/07/04 04:32:25;;;;;;;4.35;3.97;;;;;;;;;;5086939;28;20017;-53
2021/07/04 04:34:51;;;;;;;4.75;4.25;;;;;;;;;;5089769;28;20490;-53
2021/07/04 04:37:16;;;;;;;4.53;3.42;;;;;;;;;;5092482;28;20028;-54
2021/07/04 04:39:42;;;;;;;4.05;3.70;;;;;;;;;;5074638;28;20515;-53
2021/07/04 04:42:07;;;;;;;4.45;3.78;;;;;;;;;;5087019;28;20028;-53
2021/07/04 04:44:32;;;;;;;4.20;3.80;;;;;;;;;;5091137;28;20024;-49
2021/07/04 04:46:58;;;;;;;3.88;3.53;;;;;;;;;;5079997;28;20495;-54
2021/07/04 04:49:23;;;;;;;4.10;3.80;;;;;;;;;;5073349;28;20028;-53
2021/07/04 04:51:48;;;;;;;3.55;3.25;;;;;;;;;;5083398;28;20035;-53
2021/07/04 04:54:13;;;;;;;3.60;3.30;;;;;;;;;;5089834;28;20012;-53
2021/07/04 04:56:39;;;;;;;4.25;3.28;;;;;;;;;;5078241;28;20466;-53
2021/07/04 04:59:04;;;;;;;5.55;3.40;;;;;;;;;;5074086;28;20029;-53
2021/07/04 05:01:29;;;;;;;3.20;3.00;;;;;;;;;;5077999;28;20016;-51
2021/07/04 05:03:58;;;;;;;5.18;3.58;;;;;;;;;;5090078;28;20466;-54
2021/07/04 05:06:24;;;;;;;3.10;2.80;;;;;;;;;;5094292;28;20085;-54
2021/07/04 05:08:49;;;;;;;3.30;3.10;;;;;;;;;;5078011;28;20028;-52
2021/07/04 05:11:14;;;;;;;3.38;3.08;;;;;;;;;;5080093;28;20020;-54
2021/07/04 05:13:40;;;;;;;3.53;3.22;;;;;;;;;;5092237;28;20019;-52
2021/07/04 05:16:05;;;;;;;3.97;3.20;;;;;;;;;;5091951;28;20100;-53
2021/07/04 05:18:31;;;;;;;3.25;3.03;;;;;;;;;;5094332;28;20435;-50
2021/07/04 05:20:56;;;;;;;3.00;2.70;;;;;;;;;;5079202;28;20021;-54
2021/07/04 05:23:21;;;;;;;3.78;2.70;;;;;;;;;;5091461;28;20020;-54
2021/07/04 05:25:49;;;;;;;2.95;2.47;;;;;;;;;;5087891;28;20085;-54
2021/07/04 05:28:14;;;;;;;3.47;3.00;;;;;;;;;;5077590;28;20387;-51
2021/07/04 05:30:39;;;;;;;3.88;3.35;;;;;;;;;;5089822;28;20028;-48
2021/07/04 05:33:04;;;;;;;3.25;2.85;;;;;;;;;;5087204;28;20016;-52
2021/07/04 05:35:29;;;;;;;2.95;2.75;;;;;;;;;;5088833;28;20028;-54
2021/07/04 05:37:55;;;;;;;2.75;2.55;;;;;;;;;;5085642;28;20020;-49
2021/07/04 05:40:20;;;;;;;3.08;2.85;;;;;;;;;;5092742;28;20026;-49
2021/07/04 05:42:45;;;;;;;3.00;2.75;;;;;;;;;;5091891;28;20047;-54
2021/07/04 05:45:21;;;;;;;3.25;2.95;;;;;;;;;;5081457;28;20021;-51
2021/07/04 05:47:46;;;;;;;3.95;2.95;;;;;;;;;;5084241;28;20038;-54
2021/07/04 05:50:11;;;;;;;3.97;2.97;;;;;;;;;;5077406;28;20476;-51
2021/07/04 05:52:36;;;;;;;2.92;2.72;;;;;;;;;;5071458;28;20031;-54
2021/07/04 05:55:02;;;;;;;2.80;2.60;;;;;;;;;;5076315;28;20012;-52
2021/07/04 05:57:27;;;;;;;2.88;2.60;;;;;;;;;;5074428;28;20028;-51
2021/07/04 05:59:52;;;;;;;2.90;2.63;;;;;;;;;;5089861;28;20020;-53
2021/07/04 06:02:17;;;;;;;2.78;2.58;;;;;;;;;;5090154;28;20055;-51
2021/07/04 06:04:43;;;;;;;3.92;3.17;;;;;;;;;;5086539;28;20035;-54
2021/07/04 06:07:08;;;;;;;3.25;2.47;;;;;;;;;;5077913;28;20055;-54
2021/07/04 06:09:33;;;;;;;2.58;2.38;;;;;;;;;;5082559;28;20048;-52
2021/07/04 06:11:58;;;;;;;2.35;2.25;;;;;;;;;;5073596;28;20032;-55
2021/07/04 06:14:24;;;;;;;2.40;2.22;;;;;;;;;;5072969;28;20025;-53
2021/07/04 06:16:49;;;;;;;2.47;2.28;;;;;;;;;;5074478;28;20035;-52
2021/07/04 06:19:14;;;;;;;2.67;2.38;;;;;;;;;;5085169;28;20031;-52
2021/07/04 06:21:40;;;;;;;2.67;2.40;;;;;;;;;;5081193;28;20107;-53
2021/07/04 06:24:05;;;;;;;2.40;2.20;;;;;;;;;;5084056;28;20528;-52
2021/07/04 06:26:30;;;;;;;2.47;2.28;;;;;;;;;;5092464;28;20141;-54
2021/07/04 06:28:55;;;;;;;2.67;2.47;;;;;;;;;;5088637;28;20016;-55
2021/07/04 06:31:21;;;;;;;3.00;2.20;;;;;;;;;;5089413;28;20027;-53
2021/07/04 06:33:48;;;;;;;2.83;2.63;;;;;;;;;;5090218;28;20066;-53
2021/07/04 06:36:13;;;;;;;2.45;2.25;;;;;;;;;;5080663;28;20013;-51
2021/07/04 06:38:39;;;;;;;3.28;2.50;;;;;;;;;;5080418;28;20103;-51
2021/07/04 06:41:04;;;;;;;2.80;2.60;;;;;;;;;;5078193;28;20023;-54
2021/07/04 06:43:29;;;;;;;2.58;2.35;;;;;;;;;;5083956;28;20020;-52
2021/07/04 06:45:54;;;;;;;2.60;2.40;;;;;;;;;;5092513;28;20016;-52
2021/07/04 06:48:20;;;;;;;2.70;2.50;;;;;;;;;;5081690;28;20024;-53
2021/07/04 06:50:45;;;;;;;2.45;2.15;;;;;;;;;;5078602;28;20020;-50
2021/07/04 06:53:10;;;;;;;3.53;2.43;;;;;;;;;;5092245;28;20052;-53
2021/07/04 06:55:35;;;;;;;2.50;2.40;;;;;;;;;;5092623;28;20741;-53
2021/07/04 06:58:01;;;;;;;2.78;2.40;;;;;;;;;;5080980;28;20077;-50
2021/07/04 07:00:27;;;;;;;2.50;2.30;;;;;;;;;;5073691;28;20032;-54
2021/07/04 07:02:52;;;;;;;2.63;2.42;;;;;;;;;;5083297;28;20052;-51
2021/07/04 07:05:19;;;;;;;2.47;2.22;;;;;;;;;;5086346;28;20095;-53
2021/07/04 07:07:44;;;;;;;2.38;2.13;;;;;;;;;;5081589;28;20025;-53
2021/07/04 07:10:11;;;;;;;2.85;2.65;;;;;;;;;;5084399;28;20016;-53
2021/07/04 07:12:36;;;;;;;2.65;2.45;;;;;;;;;;5089407;28;20020;-54
2021/07/04 07:15:02;;;;;;;2.70;2.50;;;;;;;;;;5098505;28;20023;-55
2021/07/04 07:17:28;;;;;;;2.80;2.47;;;;;;;;;;5097833;28;20471;-54
2021/07/04 07:19:53;;;;;;;2.50;2.30;;;;;;;;;;5092074;28;20032;-51
2021/07/04 07:22:19;;;;;;;3.03;2.22;;;;;;;;;;5075794;28;20035;-54
2021/07/04 07:24:44;;;;;;;3.25;2.78;;;;;;;;;;5093152;28;20020;-54
2021/07/04 07:27:10;;;;;;;2.70;2.45;;;;;;;;;;5087040;28;20019;-56
2021/07/04 07:29:35;;;;;;;3.28;2.42;;;;;;;;;;5078075;28;20437;-56
2021/07/04 07:32:00;;;;;;;2.80;2.53;;;;;;;;;;5083004;28;20070;-54
2021/07/04 07:34:26;;;;;;;3.38;3.00;;;;;;;;;;5090530;28;20044;-53
2021/07/04 07:36:51;;;;;;;3.30;2.97;;;;;;;;;;5092791;28;20595;-54
2021/07/04 07:39:16;;;;;;;2.75;2.30;;;;;;;;;;5088322;28;20054;-52
2021/07/04 07:41:42;;;;;;;2.60;2.30;;;;;;;;;;5090107;28;20024;-53
2021/07/04 07:44:07;;;;;;;2.28;2.08;;;;;;;;;;5088802;28;20263;-52
2021/07/04 07:46:32;;;;;;;2.92;2.30;;;;;;;;;;5095043;28;20039;-55
2021/07/04 07:48:57;;;;;;;2.30;2.10;;;;;;;;;;5089491;28;20431;-57
2021/07/04 07:51:23;;;;;;;2.00;1.90;;;;;;;;;;5093024;28;20024;-56
2021/07/04 07:53:48;;;;;;;2.13;2.03;;;;;;;;;;5088365;28;20064;-56
2021/07/04 07:56:13;;;;;;;2.08;1.92;;;;;;;;;;5087306;28;20073;-53
2021/07/04 07:58:42;;;;;;;2.22;2.03;;;;;;;;;;5086393;28;20067;-55
2021/07/04 08:01:08;;;;;;;1.90;1.75;;;;;;;;;;5090467;28;20031;-55
2021/07/04 08:03:33;;;;;;;2.92;2.25;;;;;;;;;;5087425;28;20040;-54
2021/07/04 08:05:58;;;;;;;2.10;2.00;;;;;;;;;;5093519;28;20082;-54
2021/07/04 08:08:24;;;;;;;1.90;1.80;;;;;;;;;;5095529;28;20093;-55
2021/07/04 08:10:51;;;;;;;2.08;1.98;;;;;;;;;;5083974;28;20044;-53
2021/07/04 08:13:16;;;;;;;2.30;2.08;;;;;;;;;;5094427;28;20077;-50
2021/07/04 08:15:41;;;;;;;2.58;1.75;;;;;;;;;;5089788;28;20013;-54
2021/07/04 08:18:06;;;;;;;2.37;2.10;;;;;;;;;;5089826;28;20392;-55
2021/07/04 08:20:32;;;;;;;2.00;1.90;;;;;;;;;;5092061;28;20753;-49
2021/07/04 08:22:58;;;;;;;2.88;2.03;;;;;;;;;;5094652;28;20081;-54
2021/07/04 08:25:23;;;;;;;2.63;2.42;;;;;;;;;;5077297;28;20028;-54
2021/07/04 08:27:48;;;;;;;3.15;1.77;;;;;;;;;;5095434;28;20103;-51
2021/07/04 08:30:14;;;;;;;2.63;2.00;;;;;;;;;;5089773;28;20552;-55
2021/07/04 08:32:39;;;;;;;2.15;2.00;;;;;;;;;;5077654;28;20009;-55
2021/07/04 08:35:05;;;;;;;2.50;1.87;;;;;;;;;;5084312;28;20035;-54
2021/07/04 08:37:30;;;;;;;1.95;1.83;;;;;;;;;;5094521;28;20257;-55
2021/07/04 08:39:56;;;;;;;2.53;2.20;;;;;;;;;;5088653;28;20094;-53
2021/07/04 08:42:21;;;;;;;2.25;2.00;;;;;;;;;;5089585;28;20039;-53
2021/07/04 08:44:47;;;;;;;2.00;1.90;;;;;;;;;;5079857;28;20020;-51
2021/07/04 08:47:13;;;;;;;1.92;1.83;;;;;;;;;;5074898;28;20285;-53
2021/07/04 08:49:38;;;;;;;2.25;2.10;;;;;;;;;;5083122;28;20029;-54
2021/07/04 08:52:03;;;;;;;1.85;1.75;;;;;;;;;;5085529;28;20017;-54
2021/07/04 08:54:28;;;;;;;2.88;1.98;;;;;;;;;;5087337;28;20027;-55
2021/07/04 08:56:54;;;;;;;2.03;1.92;;;;;;;;;;5090088;28;20031;-55
2021/07/04 08:59:19;;;;;;;2.13;2.03;;;;;;;;;;5087987;28;20051;-54
2021/07/04 09:01:48;;;;;;;2.30;2.10;;;;;;;;;;5081711;28;20017;-54
2021/07/04 09:04:15;;;;;;;1.95;1.85;;;;;;;;;;5087570;28;20039;-55
2021/07/04 09:06:45;;;;;;;1.70;1.60;;;;;;;;;;5078015;28;20398;-54
2021/07/04 09:09:18;;;;;;;3.15;2.38;;;;;;;;;;5084323;28;20214;-55
2021/07/04 09:11:53;;;;;;;2.65;2.08;;;;;;;;;;5079431;28;20113;-52
2021/07/04 09:14:37;;;;;;;1.95;1.77;;;;;;;;;;5083409;28;20021;-54
2021/07/04 09:17:04;;;;;;;1.90;1.80;;;;;;;;;;5091358;28;20028;-52
2021/07/04 09:19:29;;;;;;;2.00;1.90;;;;;;;;;;5092950;28;20492;-52
2021/07/04 09:21:58;;;;;;;1.73;1.63;;;;;;;;;;5090421;28;20020;-55
2021/07/04 09:24:25;;;;;;;4.05;1.55;;;;;;;;;;5089384;28;20040;-56
2021/07/04 09:26:50;;;;;;;2.20;2.08;;;;;;;;;;5092427;28;20354;-54
2021/07/04 09:29:16;;;;;;;2.10;1.90;;;;;;;;;;5092091;28;20016;-55
2021/07/04 09:31:42;;;;;;;2.08;1.98;;;;;;;;;;5090673;28;20463;-53
2021/07/04 09:34:09;;;;;;;2.05;1.83;;;;;;;;;;5085308;28;20017;-55
2021/07/04 09:36:35;;;;;;;2.50;1.90;;;;;;;;;;5086228;28;20028;-52
2021/07/04 09:39:00;;;;;;;2.85;2.00;;;;;;;;;;5091450;28;20035;-52
2021/07/04 09:41:25;;;;;;;2.88;1.98;;;;;;;;;;5090552;28;20020;-53
2021/07/04 09:43:51;;;;;;;2.50;2.20;;;;;;;;;;5088884;28;20430;-53
2021/07/04 09:46:17;;;;;;;2.33;2.10;;;;;;;;;;5081341;28;20081;-54
2021/07/04 09:48:44;;;;;;;1.88;1.77;;;;;;;;;;5092786;28;20016;-54
2021/07/04 09:51:15;;;;;;;2.20;2.00;;;;;;;;;;5071895;28;20013;-55
2021/07/04 09:53:51;;;;;;;2.10;2.00;;;;;;;;;;5086397;28;20032;-55
2021/07/04 09:56:22;;;;;;;1.98;1.88;;;;;;;;;;5090674;28;20042;-54
2021/07/04 09:58:48;;;;;;;2.53;2.33;;;;;;;;;;5084614;28;20013;-55
2021/07/04 10:01:30;;;;;;;2.22;2.08;;;;;;;;;;5076810;28;20022;-53
2021/07/04 10:03:56;;;;;;;2.20;2.10;;;;;;;;;;5091793;28;20399;-54
2021/07/04 10:06:21;;;;;;;2.55;2.00;;;;;;;;;;5090225;28;20016;-54
2021/07/04 10:08:47;;;;;;;2.70;2.50;;;;;;;;;;5083358;28;20125;-52
2021/07/04 10:11:13;;;;;;;2.10;2.00;;;;;;;;;;5078987;28;20383;-53
2021/07/04 10:13:42;;;;;;;2.40;2.20;;;;;;;;;;5081127;28;20547;-54
2021/07/04 10:16:09;;;;;;;3.30;2.00;;;;;;;;;;5092163;28;20023;-56
2021/07/04 10:18:35;;;;;;;2.25;1.83;;;;;;;;;;5088371;28;20031;-53
2021/07/04 10:21:01;;;;;;;2.22;2.03;;;;;;;;;;5074403;28;20043;-54
2021/07/04 10:23:26;;;;;;;3.22;2.13;;;;;;;;;;5086391;28;20028;-53
2021/07/04 10:25:53;;;;;;;2.22;1.95;;;;;;;;;;5076815;28;20020;-53
2021/07/04 10:28:19;;;;;;;1.83;1.73;;;;;;;;;;5091534;28;20020;-54
2021/07/04 10:30:47;;;;;;;2.58;2.38;;;;;;;;;;5087270;28;20027;-54
2021/07/04 10:33:14;;;;;;;2.20;2.10;;;;;;;;;;5088943;28;20015;-55
2021/07/04 10:35:58;;;;;;;2.30;2.20;;;;;;;;;;5077866;28;20024;-52
2021/07/04 10:38:23;;;;;;;2.05;1.88;;;;;;;;;;5073967;28;20109;-54
2021/07/04 10:40:48;;;;;;;2.35;2.00;;;;;;;;;;5080641;28;20512;-54
2021/07/04 10:43:32;;;;;;;1.83;1.73;;;;;;;;;;5092624;28;20027;-54
2021/07/04 10:45:57;;;;;;;1.95;1.80;;;;;;;;;;5073739;28;20277;-52
2021/07/04 10:48:28;;;;;;;1.70;1.60;;;;;;;;;;5080162;28;20028;-53
2021/07/04 10:51:10;;;;;;;1.77;1.67;;;;;;;;;;5085564;28;20270;-53
2021/07/04 10:53:41;;;;;;;2.05;1.60;;;;;;;;;;5084712;28;20182;-54
2021/07/04 10:56:25;;;;;;;2.67;1.85;;;;;;;;;;5083620;28;20111;-53
2021/07/04 10:59:04;;;;;;;1.77;1.67;;;;;;;;;;5092140;28;20382;-55
2021/07/04 11:01:47;;;;;;;2.03;1.92;;;;;;;;;;5069371;28;20060;-53
2021/07/04 11:04:28;;;;;;;2.20;2.00;;;;;;;;;;5080159;28;20487;-54
2021/07/04 11:06:54;;;;;;;2.00;1.90;;;;;;;;;;5084387;28;20033;-54
2021/07/04 11:09:19;;;;;;;2.65;1.70;;;;;;;;;;5078624;28;20378;-53
2021/07/04 11:11:44;;;;;;;1.83;1.73;;;;;;;;;;5074205;28;20021;-54
2021/07/04 11:14:09;;;;;;;2.60;1.60;;;;;;;;;;5088842;28;20031;-55
2021/07/04 11:16:35;;;;;;;1.92;1.60;;;;;;;;;;5082503;28;20034;-55
2021/07/04 11:19:07;;;;;;;1.77;1.67;;;;;;;;;;5082300;28;20016;-53
2021/07/04 11:21:46;;;;;;;1.70;1.60;;;;;;;;;;5088696;28;20024;-55
2021/07/04 11:24:15;;;;;;;1.63;1.40;;;;;;;;;;5091779;28;20402;-52
2021/07/04 11:26:41;;;;;;;1.88;1.77;;;;;;;;;;5090353;28;20493;-52
2021/07/04 11:29:10;;;;;;;2.28;1.77;;;;;;;;;;5079782;28;20032;-53
2021/07/04 11:31:36;;;;;;;1.90;1.80;;;;;;;;;;5088463;28;20082;-55
2021/07/04 11:34:02;;;;;;;1.88;1.73;;;;;;;;;;5091957;28;20471;-54
2021/07/04 11:36:28;;;;;;;1.60;1.50;;;;;;;;;;5091347;28;20091;-56
2021/07/04 11:38:58;;;;;;;1.58;1.48;;;;;;;;;;5087409;28;20124;-55
2021/07/04 11:41:23;;;;;;;1.73;1.63;;;;;;;;;;5074533;28;20028;-49
2021/07/04 11:43:49;;;;;;;2.15;1.83;;;;;;;;;;5078825;28;20024;-56
2021/07/04 11:46:19;;;;;;;1.75;1.65;;;;;;;;;;5091646;28;20467;-54
2021/07/04 11:48:56;;;;;;;1.92;1.83;;;;;;;;;;5087067;28;20081;-55
2021/07/04 11:51:28;;;;;;;2.45;1.60;;;;;;;;;;5088500;28;20095;-55
2021/07/04 11:53:55;;;;;;;1.75;1.65;;;;;;;;;;5088883;28;20107;-56
2021/07/04 11:56:20;;;;;;;1.63;1.50;;;;;;;;;;5089618;28;20488;-54
2021/07/04 11:58:45;;;;;;;1.80;1.70;;;;;;;;;;5087043;28;20024;-52
2021/07/04 12:01:21;;;;;;;1.70;1.60;;;;;;;;;;5091102;28;20099;-56
2021/07/04 12:03:53;;;;;;;2.30;1.92;;;;;;;;;;5087999;28;20457;-52
2021/07/04 12:06:18;;;;;;;1.65;1.35;;;;;;;;;;5080113;28;20033;-55
2021/07/04 12:08:56;;;;;;;1.60;1.60;;;;;;;;;;5076399;28;20021;-53
2021/07/04 12:11:40;;;;;;;1.60;1.50;;;;;;;;;;5085499;28;20020;-54
2021/07/04 12:14:21;;;;;;;1.98;1.88;;;;;;;;;;5081452;28;20016;-53
2021/07/04 12:16:46;;;;;;;1.90;1.80;;;;;;;;;;5095367;28;20028;-53
2021/07/04 12:19:23;;;;;;;1.80;1.70;;;;;;;;;;5093628;28;20032;-54
2021/07/04 12:21:49;;;;;;;1.90;1.80;;;;;;;;;;5084886;28;20406;-56
2021/07/04 12:24:14;;;;;;;1.67;1.58;;;;;;;;;;5088477;28;20020;-55
2021/07/04 12:26:45;;;;;;;1.90;1.77;;;;;;;;;;5089163;28;20028;-52
2021/07/04 12:29:10;;;;;;;2.03;1.92;;;;;;;;;;5075920;28;20270;-56
2021/07/04 12:31:35;;;;;;;1.83;1.73;;;;;;;;;;5071830;28;20468;-56
2021/07/04 12:34:01;;;;;;;2.40;2.17;;;;;;;;;;5083618;28;20024;-54
2021/07/04 12:36:28;;;;;;;1.50;1.40;;;;;;;;;;5094085;28;20081;-55
2021/07/04 12:38:53;;;;;;;2.55;1.60;;;;;;;;;;5093395;28;20023;-54
2021/07/04 12:41:19;;;;;;;1.80;1.70;;;;;;;;;;5091523;28;20103;-52
2021/07/04 12:43:45;;;;;;;1.73;1.60;;;;;;;;;;5089652;28;20022;-56
2021/07/04 12:46:15;;;;;;;2.03;1.92;;;;;;;;;;5085459;28;20289;-56
2021/07/04 12:48:41;;;;;;;2.13;2.03;;;;;;;;;;5074422;28;20025;-54
2021/07/04 12:51:07;;;;;;;2.35;2.15;;;;;;;;;;5079449;28;20356;-54
2021/07/04 12:53:40;;;;;;;2.00;1.90;;;;;;;;;;5086352;28;20031;-57
2021/07/04 12:56:06;;;;;;;1.80;1.70;;;;;;;;;;5078210;28;20357;-54
2021/07/04 12:58:32;;;;;;;1.92;1.83;;;;;;;;;;5092236;28;20031;-55
2021/07/04 13:01:11;;;;;;;2.60;1.70;;;;;;;;;;5073198;28;20197;-52
2021/07/04 13:03:41;;;;;;;2.00;1.80;;;;;;;;;;5082833;28;20062;-53
2021/07/04 13:06:07;;;;;;;2.30;1.90;;;;;;;;;;5090310;28;20514;-51
2021/07/04 13:08:32;;;;;;;2.17;2.08;;;;;;;;;;5087574;28;20039;-52
2021/07/04 13:10:58;;;;;;;1.80;1.70;;;;;;;;;;5086779;28;20048;-56
2021/07/04 13:13:23;;;;;;;2.17;2.08;;;;;;;;;;5093106;28;20028;-55
2021/07/04 13:15:48;;;;;;;1.85;1.70;;;;;;;;;;5094143;28;20016;-55
2021/07/04 13:18:24;;;;;;;2.13;2.00;;;;;;;;;;5093790;28;20020;-56
2021/07/04 13:20:49;;;;;;;1.92;1.83;;;;;;;;;;5090112;28;20031;-56
2021/07/04 13:23:16;;;;;;;2.20;2.00;;;;;;;;;;5090529;28;20020;-54
2021/07/04 13:25:43;;;;;;;2.20;2.00;;;;;;;;;;5081843;28;20270;-53
2021/07/04 13:28:14;;;;;;;1.90;1.80;;;;;;;;;;5092302;28;20414;-56
2021/07/04 13:30:48;;;;;;;2.50;2.38;;;;;;;;;;5090367;28;20028;-52
2021/07/04 13:33:13;;;;;;;;;;;;;;;;;;5092842;28;20016;-54
2021/07/04 13:35:42;;;;;;;2.08;1.98;;;;;;;;;;5082014;28;19934;-55
2021/07/04 13:38:08;;;;;;;2.17;1.88;;;;;;;;;;5085726;28;20151;-53
2021/07/04 13:40:35;;;;;;;2.17;2.08;;;;;;;;;;5080695;28;20020;-53
2021/07/04 13:43:00;;;;;;;2.30;2.10;;;;;;;;;;5093194;28;20023;-55
2021/07/04 13:45:35;;;;;;;3.20;2.90;;;;;;;;;;5092283;28;20097;-52
2021/07/04 13:48:00;;;;;;;;;;;;;;;;;;5085212;28;20024;-54
2021/07/04 13:50:25;;;;;;;3.10;2.90;;;;;;;;;;5086100;28;20446;-53
2021/07/04 13:52:51;;;;;;;3.72;3.50;;;;;;;;;;5082064;28;20025;-54
2021/07/04 13:55:16;;;;;;;3.42;3.22;;;;;;;;;;5078966;28;20383;-52
2021/07/04 13:57:41;;;;;;;3.72;3.45;;;;;;;;;;5092578;28;20371;-56
2021/07/04 14:00:07;;;;;;;4.07;3.70;;;;;;;;;;5086354;28;20024;-54
2021/07/04 14:02:33;;;;;;;3.95;3.65;;;;;;;;;;5074169;28;20044;-50
2021/07/04 14:04:58;;;;;;;4.57;3.90;;;;;;;;;;5092704;28;20024;-51
2021/07/04 14:07:23;;;;;;;6.97;5.03;;;;;;;;;;5092866;28;20274;-51
2021/07/04 14:09:48;;;;;;;9.10;7.80;;;;;;;;;;5079752;28;20021;-53
2021/07/04 14:12:14;;;;;;;9.02;7.07;;;;;;;;;;5073764;28;20047;-54
2021/07/04 14:14:39;;;;;;;9.10;7.60;;;;;;;;;;5092941;28;20043;-53
2021/07/04 14:17:05;;;;;;;8.57;7.10;;;;;;;;;;5084834;28;20013;-51
2021/07/04 14:19:31;;;;;;;9.13;8.23;;;;;;;;;;5076946;28;20024;-54
2021/07/04 14:21:56;;;;;;;7.10;6.40;;;;;;;;;;5075964;28;20048;-52
2021/07/04 14:24:21;;;;;;;7.28;6.65;;;;;;;;;;5089131;28;20109;-53
2021/07/04 14:26:47;;;;;;;8.52;7.70;;;;;;;;;;5092959;28;20473;-49
2021/07/04 14:29:13;;;;;;;8.57;7.82;;;;;;;;;;5083562;28;20495;-52
2021/07/04 14:31:39;;;;;;;8.88;7.50;;;;;;;;;;5069596;28;20013;-52
2021/07/04 14:34:05;;;;;;;8.35;7.65;;;;;;;;;;5083818;28;20476;-54
2021/07/04 14:36:30;;;;;;;7.32;6.70;;;;;;;;;;5091438;28;20024;-54
2021/07/04 14:38:55;;;;;;;7.63;6.93;;;;;;;;;;5091508;28;20016;-52